El Mirador, Argentina
Current Conditions -  °F | °C
As of 5:00 AM on Saturday 20 Dec 2014 (Local Time) from SACO Reporting Station
Few Clouds Few Clouds  
Wind Chill: 66°   Ceiling: Unl
Heat Index: 66°   Visibility: 6mi
Dew Point: 64°   Wind: 5mph
Humidity: 94%   Direction: 360°N
Pressure: 29.5"   Gusts: NA
Location:  31.64°S, 65.07°W
Report Text: SACO 200800Z 36004KT 9999 FEW035CB19/18 Q0999 RMK CB OBS TO S
Loading
Personal Weather Stations






























Interactive Weather Map New forecast layout! Learn more

10-Day Weather Forecast

Advertisements
Track Severe Weather on mobile